sensor_id;sensor_type;location;lat;lon;timestamp;P1;durP1;ratioP1;P2;durP2;ratioP2
52776;SDS011;38656;54.260;20.822;2022-12-18T00:04:50;155.05;;;31.42;;
52776;SDS011;38656;54.260;20.822;2022-12-18T00:08:16;66.20;;;28.52;;
52776;SDS011;38656;54.260;20.822;2022-12-18T00:11:41;463.80;;;125.55;;
52776;SDS011;38656;54.260;20.822;2022-12-18T00:15:06;219.25;;;55.35;;
52776;SDS011;38656;54.260;20.822;2022-12-18T00:18:35;225.70;;;51.72;;
52776;SDS011;38656;54.260;20.822;2022-12-18T00:22:00;158.83;;;44.97;;
52776;SDS011;38656;54.260;20.822;2022-12-18T00:25:25;382.93;;;36.47;;
52776;SDS011;38656;54.260;20.822;2022-12-18T00:28:51;90.93;;;30.58;;
52776;SDS011;38656;54.260;20.822;2022-12-18T00:32:16;44.85;;;28.33;;
52776;SDS011;38656;54.260;20.822;2022-12-18T00:35:41;61.53;;;24.57;;
52776;SDS011;38656;54.260;20.822;2022-12-18T00:39:06;144.50;;;21.83;;
52776;SDS011;38656;54.260;20.822;2022-12-18T00:42:32;58.78;;;23.92;;
52776;SDS011;38656;54.260;20.822;2022-12-18T00:45:57;145.67;;;25.37;;
52776;SDS011;38656;54.260;20.822;2022-12-18T00:49:22;130.20;;;28.27;;
52776;SDS011;38656;54.260;20.822;2022-12-18T00:56:12;87.10;;;30.65;;
52776;SDS011;38656;54.260;20.822;2022-12-18T00:59:37;102.20;;;28.58;;
52776;SDS011;38656;54.260;20.822;2022-12-18T01:06:27;98.90;;;25.83;;
52776;SDS011;38656;54.260;20.822;2022-12-18T01:09:52;49.05;;;20.67;;
52776;SDS011;38656;54.260;20.822;2022-12-18T01:13:17;89.35;;;30.58;;
52776;SDS011;38656;54.260;20.822;2022-12-18T01:16:42;115.90;;;22.75;;
52776;SDS011;38656;54.260;20.822;2022-12-18T01:20:07;54.08;;;25.30;;
52776;SDS011;38656;54.260;20.822;2022-12-18T01:23:34;54.78;;;24.65;;
52776;SDS011;38656;54.260;20.822;2022-12-18T01:26:59;49.70;;;13.32;;
52776;SDS011;38656;54.260;20.822;2022-12-18T01:30:24;120.18;;;28.60;;
52776;SDS011;38656;54.260;20.822;2022-12-18T01:33:49;116.60;;;24.60;;
52776;SDS011;38656;54.260;20.822;2022-12-18T01:37:14;86.97;;;22.20;;
52776;SDS011;38656;54.260;20.822;2022-12-18T01:40:39;90.97;;;22.38;;
52776;SDS011;38656;54.260;20.822;2022-12-18T01:48:06;64.72;;;17.65;;
52776;SDS011;38656;54.260;20.822;2022-12-18T01:51:32;56.38;;;20.58;;
52776;SDS011;38656;54.260;20.822;2022-12-18T01:54:57;36.95;;;15.70;;
52776;SDS011;38656;54.260;20.822;2022-12-18T01:58:27;47.40;;;18.08;;
52776;SDS011;38656;54.260;20.822;2022-12-18T02:01:56;48.72;;;20.55;;
52776;SDS011;38656;54.260;20.822;2022-12-18T02:06:06;53.80;;;21.70;;
52776;SDS011;38656;54.260;20.822;2022-12-18T02:09:09;46.92;;;22.85;;
52776;SDS011;38656;54.260;20.822;2022-12-18T02:24:14;54.97;;;20.35;;
52776;SDS011;38656;54.260;20.822;2022-12-18T02:28:09;27.35;;;17.73;;
52776;SDS011;38656;54.260;20.822;2022-12-18T02:31:42;24.90;;;16.13;;
52776;SDS011;38656;54.260;20.822;2022-12-18T02:35:12;31.63;;;22.15;;
52776;SDS011;38656;54.260;20.822;2022-12-18T02:38:39;29.45;;;17.92;;
52776;SDS011;38656;54.260;20.822;2022-12-18T02:42:06;19.35;;;13.85;;
52776;SDS011;38656;54.260;20.822;2022-12-18T02:45:37;42.50;;;21.15;;
52776;SDS011;38656;54.260;20.822;2022-12-18T02:52:55;53.55;;;12.00;;
52776;SDS011;38656;54.260;20.822;2022-12-18T02:59:57;48.72;;;12.82;;
52776;SDS011;38656;54.260;20.822;2022-12-18T03:03:30;15.05;;;9.73;;
52776;SDS011;38656;54.260;20.822;2022-12-18T03:07:02;21.40;;;12.07;;
52776;SDS011;38656;54.260;20.822;2022-12-18T03:10:34;23.60;;;15.63;;
52776;SDS011;38656;54.260;20.822;2022-12-18T03:14:21;23.60;;;13.50;;
52776;SDS011;38656;54.260;20.822;2022-12-18T03:17:56;21.77;;;13.32;;
52776;SDS011;38656;54.260;20.822;2022-12-18T03:21:42;17.98;;;14.77;;
52776;SDS011;38656;54.260;20.822;2022-12-18T03:25:13;17.23;;;11.00;;
52776;SDS011;38656;54.260;20.822;2022-12-18T03:28:50;20.13;;;15.75;;
52776;SDS011;38656;54.260;20.822;2022-12-18T03:32:33;19.50;;;14.05;;
52776;SDS011;38656;54.260;20.822;2022-12-18T03:36:03;16.70;;;11.90;;
52776;SDS011;38656;54.260;20.822;2022-12-18T03:39:29;29.30;;;17.35;;
52776;SDS011;38656;54.260;20.822;2022-12-18T03:43:03;21.88;;;16.58;;
52776;SDS011;38656;54.260;20.822;2022-12-18T03:46:51;19.50;;;13.45;;
52776;SDS011;38656;54.260;20.822;2022-12-18T03:50:39;28.75;;;17.02;;
52776;SDS011;38656;54.260;20.822;2022-12-18T03:54:12;25.38;;;17.88;;
52776;SDS011;38656;54.260;20.822;2022-12-18T03:57:37;28.75;;;19.05;;
52776;SDS011;38656;54.260;20.822;2022-12-18T04:01:04;27.63;;;18.23;;
52776;SDS011;38656;54.260;20.822;2022-12-18T04:04:32;24.08;;;15.60;;
52776;SDS011;38656;54.260;20.822;2022-12-18T04:07:58;20.17;;;14.65;;
52776;SDS011;38656;54.260;20.822;2022-12-18T04:11:24;19.90;;;11.95;;
52776;SDS011;38656;54.260;20.822;2022-12-18T04:14:50;17.10;;;11.25;;
52776;SDS011;38656;54.260;20.822;2022-12-18T04:18:15;20.23;;;13.93;;
52776;SDS011;38656;54.260;20.822;2022-12-18T04:21:40;23.97;;;14.77;;
52776;SDS011;38656;54.260;20.822;2022-12-18T04:25:04;23.20;;;15.00;;
52776;SDS011;38656;54.260;20.822;2022-12-18T04:28:29;20.10;;;12.50;;
52776;SDS011;38656;54.260;20.822;2022-12-18T04:31:54;21.90;;;15.00;;
52776;SDS011;38656;54.260;20.822;2022-12-18T04:35:19;34.03;;;20.95;;
52776;SDS011;38656;54.260;20.822;2022-12-18T04:38:43;33.15;;;18.40;;
52776;SDS011;38656;54.260;20.822;2022-12-18T04:42:08;29.63;;;19.10;;
52776;SDS011;38656;54.260;20.822;2022-12-18T04:45:33;33.60;;;20.13;;
52776;SDS011;38656;54.260;20.822;2022-12-18T04:48:57;31.40;;;24.50;;
52776;SDS011;38656;54.260;20.822;2022-12-18T04:52:22;34.83;;;26.77;;
52776;SDS011;38656;54.260;20.822;2022-12-18T04:55:47;27.08;;;17.92;;
52776;SDS011;38656;54.260;20.822;2022-12-18T04:59:11;22.40;;;16.65;;
52776;SDS011;38656;54.260;20.822;2022-12-18T05:02:36;23.58;;;16.48;;
52776;SDS011;38656;54.260;20.822;2022-12-18T05:06:01;27.38;;;16.67;;
52776;SDS011;38656;54.260;20.822;2022-12-18T05:09:26;33.35;;;23.55;;
52776;SDS011;38656;54.260;20.822;2022-12-18T05:12:50;53.67;;;27.95;;
52776;SDS011;38656;54.260;20.822;2022-12-18T05:16:15;41.60;;;23.77;;
52776;SDS011;38656;54.260;20.822;2022-12-18T05:19:40;39.15;;;23.17;;
52776;SDS011;38656;54.260;20.822;2022-12-18T05:23:05;124.22;;;59.50;;
52776;SDS011;38656;54.260;20.822;2022-12-18T05:26:29;59.08;;;34.65;;
52776;SDS011;38656;54.260;20.822;2022-12-18T05:29:54;109.47;;;51.72;;
52776;SDS011;38656;54.260;20.822;2022-12-18T05:33:20;61.58;;;42.90;;
52776;SDS011;38656;54.260;20.822;2022-12-18T05:40:10;49.88;;;31.20;;
52776;SDS011;38656;54.260;20.822;2022-12-18T05:43:36;75.35;;;35.20;;
52776;SDS011;38656;54.260;20.822;2022-12-18T05:47:01;32.40;;;24.00;;
52776;SDS011;38656;54.260;20.822;2022-12-18T05:50:25;33.75;;;23.17;;
52776;SDS011;38656;54.260;20.822;2022-12-18T05:53:50;45.08;;;25.50;;
52776;SDS011;38656;54.260;20.822;2022-12-18T05:57:15;47.90;;;28.63;;
52776;SDS011;38656;54.260;20.822;2022-12-18T06:00:40;31.83;;;21.58;;
52776;SDS011;38656;54.260;20.822;2022-12-18T06:04:05;33.88;;;21.30;;
52776;SDS011;38656;54.260;20.822;2022-12-18T06:07:30;48.92;;;32.63;;
52776;SDS011;38656;54.260;20.822;2022-12-18T06:10:55;48.37;;;29.60;;
52776;SDS011;38656;54.260;20.822;2022-12-18T06:14:19;39.20;;;26.60;;
52776;SDS011;38656;54.260;20.822;2022-12-18T06:17:44;38.88;;;26.65;;
52776;SDS011;38656;54.260;20.822;2022-12-18T06:21:09;36.20;;;23.73;;
52776;SDS011;38656;54.260;20.822;2022-12-18T06:24:34;43.50;;;27.87;;
52776;SDS011;38656;54.260;20.822;2022-12-18T06:27:58;39.00;;;25.10;;
52776;SDS011;38656;54.260;20.822;2022-12-18T06:31:23;45.92;;;25.00;;
52776;SDS011;38656;54.260;20.822;2022-12-18T06:34:48;48.88;;;30.58;;
52776;SDS011;38656;54.260;20.822;2022-12-18T06:38:13;57.77;;;33.83;;
52776;SDS011;38656;54.260;20.822;2022-12-18T06:41:38;53.55;;;34.97;;
52776;SDS011;38656;54.260;20.822;2022-12-18T06:45:02;62.43;;;37.77;;
52776;SDS011;38656;54.260;20.822;2022-12-18T06:48:27;58.25;;;34.92;;
52776;SDS011;38656;54.260;20.822;2022-12-18T06:51:52;54.37;;;29.83;;
52776;SDS011;38656;54.260;20.822;2022-12-18T06:55:17;64.03;;;35.47;;
52776;SDS011;38656;54.260;20.822;2022-12-18T06:58:42;111.50;;;47.60;;
52776;SDS011;38656;54.260;20.822;2022-12-18T07:02:09;61.70;;;38.60;;
52776;SDS011;38656;54.260;20.822;2022-12-18T07:05:39;54.33;;;31.58;;
52776;SDS011;38656;54.260;20.822;2022-12-18T07:09:03;50.60;;;38.00;;
52776;SDS011;38656;54.260;20.822;2022-12-18T07:12:28;55.97;;;37.33;;
52776;SDS011;38656;54.260;20.822;2022-12-18T07:15:53;140.63;;;68.50;;
52776;SDS011;38656;54.260;20.822;2022-12-18T07:19:18;84.60;;;47.93;;
52776;SDS011;38656;54.260;20.822;2022-12-18T07:22:42;19.60;;;14.43;;
52776;SDS011;38656;54.260;20.822;2022-12-18T07:26:08;26.63;;;19.27;;
52776;SDS011;38656;54.260;20.822;2022-12-18T07:32:58;36.70;;;23.80;;
52776;SDS011;38656;54.260;20.822;2022-12-18T07:36:22;39.42;;;24.38;;
52776;SDS011;38656;54.260;20.822;2022-12-18T07:39:47;36.23;;;20.13;;
52776;SDS011;38656;54.260;20.822;2022-12-18T07:43:12;47.28;;;28.63;;
52776;SDS011;38656;54.260;20.822;2022-12-18T07:46:37;59.22;;;39.30;;
52776;SDS011;38656;54.260;20.822;2022-12-18T07:50:03;36.15;;;24.13;;
52776;SDS011;38656;54.260;20.822;2022-12-18T07:53:29;37.75;;;25.70;;
52776;SDS011;38656;54.260;20.822;2022-12-18T07:56:54;35.30;;;24.05;;
52776;SDS011;38656;54.260;20.822;2022-12-18T08:00:19;35.10;;;23.13;;
52776;SDS011;38656;54.260;20.822;2022-12-18T08:03:43;40.93;;;27.63;;
52776;SDS011;38656;54.260;20.822;2022-12-18T08:07:08;79.80;;;42.15;;
52776;SDS011;38656;54.260;20.822;2022-12-18T08:10:33;67.47;;;36.40;;
52776;SDS011;38656;54.260;20.822;2022-12-18T08:13:57;92.25;;;41.22;;
52776;SDS011;38656;54.260;20.822;2022-12-18T08:17:22;37.50;;;22.98;;
52776;SDS011;38656;54.260;20.822;2022-12-18T08:20:47;30.88;;;17.58;;
52776;SDS011;38656;54.260;20.822;2022-12-18T08:24:11;56.58;;;25.17;;
52776;SDS011;38656;54.260;20.822;2022-12-18T08:27:36;44.38;;;23.83;;
52776;SDS011;38656;54.260;20.822;2022-12-18T08:31:01;43.87;;;30.10;;
52776;SDS011;38656;54.260;20.822;2022-12-18T08:34:25;85.10;;;40.80;;
52776;SDS011;38656;54.260;20.822;2022-12-18T08:37:50;129.75;;;51.45;;
52776;SDS011;38656;54.260;20.822;2022-12-18T08:41:16;123.17;;;54.57;;
52776;SDS011;38656;54.260;20.822;2022-12-18T08:45:00;45.25;;;28.48;;
52776;SDS011;38656;54.260;20.822;2022-12-18T08:48:24;69.28;;;40.00;;
52776;SDS011;38656;54.260;20.822;2022-12-18T08:51:53;61.05;;;36.70;;
52776;SDS011;38656;54.260;20.822;2022-12-18T08:55:18;62.00;;;37.13;;
52776;SDS011;38656;54.260;20.822;2022-12-18T08:58:43;100.95;;;42.80;;
52776;SDS011;38656;54.260;20.822;2022-12-18T09:02:09;27.45;;;17.67;;
52776;SDS011;38656;54.260;20.822;2022-12-18T09:05:41;56.38;;;30.80;;
52776;SDS011;38656;54.260;20.822;2022-12-18T09:09:06;45.07;;;32.80;;
52776;SDS011;38656;54.260;20.822;2022-12-18T09:12:31;35.47;;;22.63;;
52776;SDS011;38656;54.260;20.822;2022-12-18T09:15:56;43.93;;;28.67;;
52776;SDS011;38656;54.260;20.822;2022-12-18T09:19:21;28.95;;;19.92;;
52776;SDS011;38656;54.260;20.822;2022-12-18T09:22:46;29.98;;;20.13;;
52776;SDS011;38656;54.260;20.822;2022-12-18T09:26:17;41.60;;;22.00;;
52776;SDS011;38656;54.260;20.822;2022-12-18T09:29:42;74.37;;;41.57;;
52776;SDS011;38656;54.260;20.822;2022-12-18T09:33:08;61.88;;;41.75;;
52776;SDS011;38656;54.260;20.822;2022-12-18T09:36:32;34.57;;;31.00;;
52776;SDS011;38656;54.260;20.822;2022-12-18T09:39:57;48.72;;;34.08;;
52776;SDS011;38656;54.260;20.822;2022-12-18T09:43:39;56.05;;;44.03;;
52776;SDS011;38656;54.260;20.822;2022-12-18T09:47:18;97.28;;;56.65;;
52776;SDS011;38656;54.260;20.822;2022-12-18T09:50:47;112.30;;;61.28;;
52776;SDS011;38656;54.260;20.822;2022-12-18T09:54:23;98.45;;;49.45;;
52776;SDS011;38656;54.260;20.822;2022-12-18T09:58:00;231.27;;;101.35;;
52776;SDS011;38656;54.260;20.822;2022-12-18T10:01:28;97.53;;;47.25;;
52776;SDS011;38656;54.260;20.822;2022-12-18T10:09:09;85.80;;;43.53;;
52776;SDS011;38656;54.260;20.822;2022-12-18T10:13:02;116.25;;;46.15;;
52776;SDS011;38656;54.260;20.822;2022-12-18T10:27:46;101.13;;;44.75;;
52776;SDS011;38656;54.260;20.822;2022-12-18T10:31:14;84.60;;;41.42;;
52776;SDS011;38656;54.260;20.822;2022-12-18T10:34:50;76.70;;;38.80;;
52776;SDS011;38656;54.260;20.822;2022-12-18T10:41:40;255.63;;;90.13;;
52776;SDS011;38656;54.260;20.822;2022-12-18T10:45:11;109.90;;;50.45;;
52776;SDS011;38656;54.260;20.822;2022-12-18T10:52:19;100.45;;;44.15;;
52776;SDS011;38656;54.260;20.822;2022-12-18T10:55:46;317.35;;;120.35;;
52776;SDS011;38656;54.260;20.822;2022-12-18T10:59:13;107.38;;;46.50;;
52776;SDS011;38656;54.260;20.822;2022-12-18T11:02:55;152.52;;;61.35;;
52776;SDS011;38656;54.260;20.822;2022-12-18T11:06:21;158.20;;;63.35;;
52776;SDS011;38656;54.260;20.822;2022-12-18T11:09:46;242.30;;;92.63;;
52776;SDS011;38656;54.260;20.822;2022-12-18T11:13:24;76.75;;;41.47;;
52776;SDS011;38656;54.260;20.822;2022-12-18T11:16:52;208.25;;;81.03;;
52776;SDS011;38656;54.260;20.822;2022-12-18T11:20:32;191.23;;;79.50;;
52776;SDS011;38656;54.260;20.822;2022-12-18T11:24:04;84.45;;;47.97;;
52776;SDS011;38656;54.260;20.822;2022-12-18T11:27:31;98.97;;;50.70;;
52776;SDS011;38656;54.260;20.822;2022-12-18T11:41:57;65.25;;;38.55;;
52776;SDS011;38656;54.260;20.822;2022-12-18T11:45:28;93.80;;;45.78;;
52776;SDS011;38656;54.260;20.822;2022-12-18T11:48:58;153.50;;;62.17;;
52776;SDS011;38656;54.260;20.822;2022-12-18T11:52:37;92.68;;;44.20;;
52776;SDS011;38656;54.260;20.822;2022-12-18T11:56:05;106.70;;;53.13;;
52776;SDS011;38656;54.260;20.822;2022-12-18T12:10:45;245.88;;;98.93;;
52776;SDS011;38656;54.260;20.822;2022-12-18T12:14:33;210.00;;;91.07;;
52776;SDS011;38656;54.260;20.822;2022-12-18T12:18:31;155.52;;;71.35;;
52776;SDS011;38656;54.260;20.822;2022-12-18T12:25:51;238.77;;;106.05;;
52776;SDS011;38656;54.260;20.822;2022-12-18T12:40:13;268.08;;;100.03;;
52776;SDS011;38656;54.260;20.822;2022-12-18T12:44:03;260.88;;;109.60;;
52776;SDS011;38656;54.260;20.822;2022-12-18T12:47:33;451.58;;;185.13;;
52776;SDS011;38656;54.260;20.822;2022-12-18T12:51:11;255.75;;;95.85;;
52776;SDS011;38656;54.260;20.822;2022-12-18T12:54:40;167.77;;;60.97;;
52776;SDS011;38656;54.260;20.822;2022-12-18T12:58:06;251.35;;;94.55;;
52776;SDS011;38656;54.260;20.822;2022-12-18T13:01:41;336.35;;;128.95;;
52776;SDS011;38656;54.260;20.822;2022-12-18T13:09:29;449.40;;;183.85;;
52776;SDS011;38656;54.260;20.822;2022-12-18T13:16:44;102.50;;;52.33;;
52776;SDS011;38656;54.260;20.822;2022-12-18T13:20:11;136.27;;;62.45;;
52776;SDS011;38656;54.260;20.822;2022-12-18T13:23:56;120.32;;;54.55;;
52776;SDS011;38656;54.260;20.822;2022-12-18T13:31:28;181.98;;;84.38;;
52776;SDS011;38656;54.260;20.822;2022-12-18T13:42:56;233.43;;;91.32;;
52776;SDS011;38656;54.260;20.822;2022-12-18T13:46:46;221.32;;;87.90;;
52776;SDS011;38656;54.260;20.822;2022-12-18T13:50:20;186.27;;;80.55;;
52776;SDS011;38656;54.260;20.822;2022-12-18T13:57:29;155.90;;;72.50;;
52776;SDS011;38656;54.260;20.822;2022-12-18T14:00:54;480.00;;;277.20;;
52776;SDS011;38656;54.260;20.822;2022-12-18T14:04:31;441.45;;;230.40;;
52776;SDS011;38656;54.260;20.822;2022-12-18T14:08:01;151.82;;;68.78;;
52776;SDS011;38656;54.260;20.822;2022-12-18T14:11:27;117.05;;;67.45;;
52776;SDS011;38656;54.260;20.822;2022-12-18T14:18:55;114.35;;;58.30;;
52776;SDS011;38656;54.260;20.822;2022-12-18T14:22:22;135.20;;;62.92;;
52776;SDS011;38656;54.260;20.822;2022-12-18T14:25:55;117.38;;;62.17;;
52776;SDS011;38656;54.260;20.822;2022-12-18T14:29:37;116.20;;;54.75;;
52776;SDS011;38656;54.260;20.822;2022-12-18T14:33:15;103.93;;;51.33;;
52776;SDS011;38656;54.260;20.822;2022-12-18T14:36:53;110.60;;;51.22;;
52776;SDS011;38656;54.260;20.822;2022-12-18T14:40:17;105.80;;;50.15;;
52776;SDS011;38656;54.260;20.822;2022-12-18T14:43:44;96.68;;;47.15;;
52776;SDS011;38656;54.260;20.822;2022-12-18T14:47:13;74.95;;;43.10;;
52776;SDS011;38656;54.260;20.822;2022-12-18T14:50:53;103.65;;;48.78;;
52776;SDS011;38656;54.260;20.822;2022-12-18T14:54:35;124.28;;;57.58;;
52776;SDS011;38656;54.260;20.822;2022-12-18T15:01:35;162.55;;;65.35;;
52776;SDS011;38656;54.260;20.822;2022-12-18T15:05:02;141.57;;;64.35;;
52776;SDS011;38656;54.260;20.822;2022-12-18T15:08:40;148.27;;;64.95;;
52776;SDS011;38656;54.260;20.822;2022-12-18T15:12:24;162.55;;;65.40;;
52776;SDS011;38656;54.260;20.822;2022-12-18T15:15:50;178.63;;;69.90;;
52776;SDS011;38656;54.260;20.822;2022-12-18T15:19:17;168.00;;;69.53;;
52776;SDS011;38656;54.260;20.822;2022-12-18T15:22:43;149.82;;;61.50;;
52776;SDS011;38656;54.260;20.822;2022-12-18T15:26:12;307.27;;;155.88;;
52776;SDS011;38656;54.260;20.822;2022-12-18T15:33:37;192.05;;;80.03;;
52776;SDS011;38656;54.260;20.822;2022-12-18T15:37:02;397.52;;;195.40;;
52776;SDS011;38656;54.260;20.822;2022-12-18T15:40:26;253.25;;;115.97;;
52776;SDS011;38656;54.260;20.822;2022-12-18T15:43:52;220.52;;;92.20;;
52776;SDS011;38656;54.260;20.822;2022-12-18T15:47:17;196.52;;;81.97;;
52776;SDS011;38656;54.260;20.822;2022-12-18T15:50:46;332.52;;;113.82;;
52776;SDS011;38656;54.260;20.822;2022-12-18T15:54:13;309.60;;;110.75;;
52776;SDS011;38656;54.260;20.822;2022-12-18T15:57:59;372.02;;;125.35;;
52776;SDS011;38656;54.260;20.822;2022-12-18T16:01:25;273.30;;;100.93;;
52776;SDS011;38656;54.260;20.822;2022-12-18T16:04:51;311.38;;;105.32;;
52776;SDS011;38656;54.260;20.822;2022-12-18T16:08:16;434.83;;;173.95;;
52776;SDS011;38656;54.260;20.822;2022-12-18T16:11:41;295.95;;;114.90;;
52776;SDS011;38656;54.260;20.822;2022-12-18T16:15:07;167.98;;;67.97;;
52776;SDS011;38656;54.260;20.822;2022-12-18T16:18:34;159.68;;;69.57;;
52776;SDS011;38656;54.260;20.822;2022-12-18T16:21:58;196.82;;;72.93;;
52776;SDS011;38656;54.260;20.822;2022-12-18T16:25:24;130.77;;;54.05;;
52776;SDS011;38656;54.260;20.822;2022-12-18T16:28:49;125.82;;;55.50;;
52776;SDS011;38656;54.260;20.822;2022-12-18T16:32:18;148.18;;;63.30;;
52776;SDS011;38656;54.260;20.822;2022-12-18T16:35:50;355.20;;;123.57;;
52776;SDS011;38656;54.260;20.822;2022-12-18T16:39:15;298.98;;;109.50;;
52776;SDS011;38656;54.260;20.822;2022-12-18T16:42:41;320.73;;;118.70;;
52776;SDS011;38656;54.260;20.822;2022-12-18T16:46:06;382.77;;;148.40;;
52776;SDS011;38656;54.260;20.822;2022-12-18T16:49:31;409.08;;;159.18;;
52776;SDS011;38656;54.260;20.822;2022-12-18T16:52:56;417.83;;;144.13;;
52776;SDS011;38656;54.260;20.822;2022-12-18T16:56:21;412.52;;;136.40;;
52776;SDS011;38656;54.260;20.822;2022-12-18T16:59:46;372.17;;;107.37;;
52776;SDS011;38656;54.260;20.822;2022-12-18T17:03:10;387.73;;;120.23;;
52776;SDS011;38656;54.260;20.822;2022-12-18T17:06:38;397.73;;;133.73;;
52776;SDS011;38656;54.260;20.822;2022-12-18T17:10:03;440.52;;;164.27;;
52776;SDS011;38656;54.260;20.822;2022-12-18T17:13:29;381.83;;;131.25;;
52776;SDS011;38656;54.260;20.822;2022-12-18T17:16:54;432.52;;;171.77;;
52776;SDS011;38656;54.260;20.822;2022-12-18T17:20:18;267.42;;;99.75;;
52776;SDS011;38656;54.260;20.822;2022-12-18T17:23:43;219.00;;;79.55;;
52776;SDS011;38656;54.260;20.822;2022-12-18T17:27:08;237.63;;;81.43;;
52776;SDS011;38656;54.260;20.822;2022-12-18T17:30:33;235.55;;;82.32;;
52776;SDS011;38656;54.260;20.822;2022-12-18T17:33:58;297.63;;;107.43;;
52776;SDS011;38656;54.260;20.822;2022-12-18T17:37:24;359.55;;;133.70;;
52776;SDS011;38656;54.260;20.822;2022-12-18T17:40:49;365.70;;;137.00;;
52776;SDS011;38656;54.260;20.822;2022-12-18T17:44:14;340.80;;;125.07;;
52776;SDS011;38656;54.260;20.822;2022-12-18T17:47:38;341.92;;;120.55;;
52776;SDS011;38656;54.260;20.822;2022-12-18T17:51:04;366.98;;;115.13;;
52776;SDS011;38656;54.260;20.822;2022-12-18T17:54:29;372.33;;;123.00;;
52776;SDS011;38656;54.260;20.822;2022-12-18T17:57:54;344.52;;;118.70;;
52776;SDS011;38656;54.260;20.822;2022-12-18T18:01:21;239.67;;;89.03;;
52776;SDS011;38656;54.260;20.822;2022-12-18T18:04:46;263.95;;;93.38;;
52776;SDS011;38656;54.260;20.822;2022-12-18T18:08:11;236.97;;;86.90;;
52776;SDS011;38656;54.260;20.822;2022-12-18T18:11:35;283.52;;;92.57;;
52776;SDS011;38656;54.260;20.822;2022-12-18T18:15:19;416.65;;;133.60;;
52776;SDS011;38656;54.260;20.822;2022-12-18T18:18:44;534.53;;;195.82;;
52776;SDS011;38656;54.260;20.822;2022-12-18T18:22:08;574.38;;;208.80;;
52776;SDS011;38656;54.260;20.822;2022-12-18T18:25:36;585.13;;;216.30;;
52776;SDS011;38656;54.260;20.822;2022-12-18T18:29:02;574.58;;;229.40;;
52776;SDS011;38656;54.260;20.822;2022-12-18T18:32:27;560.25;;;208.48;;
52776;SDS011;38656;54.260;20.822;2022-12-18T18:35:51;513.95;;;178.63;;
52776;SDS011;38656;54.260;20.822;2022-12-18T18:39:16;480.50;;;160.85;;
52776;SDS011;38656;54.260;20.822;2022-12-18T18:42:42;461.67;;;159.82;;
52776;SDS011;38656;54.260;20.822;2022-12-18T18:46:08;636.10;;;250.48;;
52776;SDS011;38656;54.260;20.822;2022-12-18T18:49:34;547.83;;;216.15;;
52776;SDS011;38656;54.260;20.822;2022-12-18T18:52:59;430.55;;;146.15;;
52776;SDS011;38656;54.260;20.822;2022-12-18T18:56:24;336.70;;;118.30;;
52776;SDS011;38656;54.260;20.822;2022-12-18T18:59:48;275.13;;;91.38;;
52776;SDS011;38656;54.260;20.822;2022-12-18T19:03:23;169.57;;;62.75;;
52776;SDS011;38656;54.260;20.822;2022-12-18T19:06:48;199.30;;;77.20;;
52776;SDS011;38656;54.260;20.822;2022-12-18T19:10:13;265.50;;;103.20;;
52776;SDS011;38656;54.260;20.822;2022-12-18T19:13:56;138.52;;;48.67;;
52776;SDS011;38656;54.260;20.822;2022-12-18T19:24:20;249.15;;;83.47;;
52776;SDS011;38656;54.260;20.822;2022-12-18T19:27:45;176.98;;;59.85;;
52776;SDS011;38656;54.260;20.822;2022-12-18T19:31:11;182.02;;;60.88;;
52776;SDS011;38656;54.260;20.822;2022-12-18T19:34:36;170.30;;;58.70;;
52776;SDS011;38656;54.260;20.822;2022-12-18T19:38:01;192.30;;;64.10;;
52776;SDS011;38656;54.260;20.822;2022-12-18T19:41:28;269.10;;;93.53;;
52776;SDS011;38656;54.260;20.822;2022-12-18T19:44:53;188.77;;;65.85;;
52776;SDS011;38656;54.260;20.822;2022-12-18T19:48:20;198.00;;;63.22;;
52776;SDS011;38656;54.260;20.822;2022-12-18T19:51:45;385.67;;;165.15;;
52776;SDS011;38656;54.260;20.822;2022-12-18T19:55:10;359.33;;;138.50;;
52776;SDS011;38656;54.260;20.822;2022-12-18T19:58:36;213.90;;;82.00;;
52776;SDS011;38656;54.260;20.822;2022-12-18T20:02:01;155.57;;;59.42;;
52776;SDS011;38656;54.260;20.822;2022-12-18T20:05:27;151.43;;;57.95;;
52776;SDS011;38656;54.260;20.822;2022-12-18T20:08:52;145.77;;;54.70;;
52776;SDS011;38656;54.260;20.822;2022-12-18T20:12:17;178.80;;;68.43;;
52776;SDS011;38656;54.260;20.822;2022-12-18T20:15:42;178.40;;;63.37;;
52776;SDS011;38656;54.260;20.822;2022-12-18T20:19:08;128.88;;;51.90;;
52776;SDS011;38656;54.260;20.822;2022-12-18T20:22:33;182.68;;;64.35;;
52776;SDS011;38656;54.260;20.822;2022-12-18T20:25:58;243.30;;;90.60;;
52776;SDS011;38656;54.260;20.822;2022-12-18T20:29:23;126.50;;;49.87;;
52776;SDS011;38656;54.260;20.822;2022-12-18T20:32:47;141.93;;;53.77;;
52776;SDS011;38656;54.260;20.822;2022-12-18T20:36:13;90.80;;;42.37;;
52776;SDS011;38656;54.260;20.822;2022-12-18T20:43:04;69.22;;;30.50;;
52776;SDS011;38656;54.260;20.822;2022-12-18T20:46:29;114.68;;;44.63;;
52776;SDS011;38656;54.260;20.822;2022-12-18T20:49:54;159.48;;;56.88;;
52776;SDS011;38656;54.260;20.822;2022-12-18T20:53:26;85.25;;;32.85;;
52776;SDS011;38656;54.260;20.822;2022-12-18T20:56:51;117.40;;;43.42;;
52776;SDS011;38656;54.260;20.822;2022-12-18T21:00:16;118.53;;;42.08;;
52776;SDS011;38656;54.260;20.822;2022-12-18T21:03:43;102.00;;;41.15;;
52776;SDS011;38656;54.260;20.822;2022-12-18T21:07:10;175.45;;;62.03;;
52776;SDS011;38656;54.260;20.822;2022-12-18T21:10:35;167.02;;;55.65;;
52776;SDS011;38656;54.260;20.822;2022-12-18T21:14:22;220.85;;;71.60;;
52776;SDS011;38656;54.260;20.822;2022-12-18T21:17:47;232.63;;;94.75;;
52776;SDS011;38656;54.260;20.822;2022-12-18T21:21:12;177.23;;;65.45;;
52776;SDS011;38656;54.260;20.822;2022-12-18T21:24:37;149.45;;;49.75;;
52776;SDS011;38656;54.260;20.822;2022-12-18T21:28:02;107.07;;;45.20;;
52776;SDS011;38656;54.260;20.822;2022-12-18T21:31:29;141.60;;;52.17;;
52776;SDS011;38656;54.260;20.822;2022-12-18T21:34:54;178.73;;;62.33;;
52776;SDS011;38656;54.260;20.822;2022-12-18T21:38:19;242.15;;;79.25;;
52776;SDS011;38656;54.260;20.822;2022-12-18T21:41:44;155.68;;;55.35;;
52776;SDS011;38656;54.260;20.822;2022-12-18T21:45:28;218.50;;;77.45;;
52776;SDS011;38656;54.260;20.822;2022-12-18T21:49:02;222.73;;;76.95;;
52776;SDS011;38656;54.260;20.822;2022-12-18T21:52:27;179.70;;;65.65;;
52776;SDS011;38656;54.260;20.822;2022-12-18T21:55:58;213.83;;;72.00;;
52776;SDS011;38656;54.260;20.822;2022-12-18T21:59:29;392.00;;;112.90;;
52776;SDS011;38656;54.260;20.822;2022-12-18T22:02:54;277.33;;;80.72;;
52776;SDS011;38656;54.260;20.822;2022-12-18T22:06:19;376.80;;;157.80;;
52776;SDS011;38656;54.260;20.822;2022-12-18T22:09:43;131.07;;;51.43;;
52776;SDS011;38656;54.260;20.822;2022-12-18T22:13:08;214.13;;;86.63;;